createdAt,value
2022-11-05T00:02:27.913Z,1.60
2022-11-05T00:05:13.333Z,1.60
2022-11-05T00:08:00.506Z,1.93
2022-11-05T00:10:30.655Z,2.30
2022-11-05T00:13:18.645Z,2.00
2022-11-05T00:16:04.734Z,2.00
2022-11-05T00:18:32.761Z,2.10
2022-11-05T00:21:00.592Z,2.07
2022-11-05T00:24:00.781Z,2.37
2022-11-05T00:26:28.688Z,2.47
2022-11-05T00:28:58.352Z,2.30
2022-11-05T00:31:26.274Z,2.20
2022-11-05T00:33:54.134Z,2.50
2022-11-05T00:36:21.971Z,2.20
2022-11-05T00:38:49.806Z,2.67
2022-11-05T00:41:17.640Z,3.50
2022-11-05T00:44:03.034Z,3.10
2022-11-05T00:46:32.179Z,2.57
2022-11-05T00:49:17.654Z,2.90
2022-11-05T00:51:45.479Z,2.53
2022-11-05T00:54:13.331Z,2.80
2022-11-05T00:56:41.134Z,2.80
2022-11-05T00:59:08.979Z,2.77
2022-11-05T01:01:38.293Z,2.23
2022-11-05T01:04:06.460Z,2.30
2022-11-05T01:06:34.291Z,2.33
2022-11-05T01:09:02.122Z,2.70
2022-11-05T01:11:37.068Z,2.70
2022-11-05T01:14:07.610Z,2.47
2022-11-05T01:16:35.620Z,2.73
2022-11-05T01:19:06.584Z,2.33
2022-11-05T01:21:34.534Z,2.30
2022-11-05T01:24:02.940Z,2.27
2022-11-05T01:26:31.072Z,2.40
2022-11-05T01:29:00.838Z,2.10
2022-11-05T01:31:29.154Z,2.93
2022-11-05T01:33:57.017Z,2.57
2022-11-05T01:36:26.205Z,3.03
2022-11-05T01:38:54.036Z,2.87
2022-11-05T01:41:21.938Z,2.33
2022-11-05T01:43:52.191Z,2.60
2022-11-05T01:46:24.541Z,2.47
2022-11-05T01:48:57.266Z,2.50
2022-11-05T01:51:29.839Z,2.20
2022-11-05T01:54:01.526Z,2.70
2022-11-05T01:56:34.540Z,2.57
2022-11-05T01:59:07.789Z,2.67
2022-11-05T02:01:35.948Z,2.47
2022-11-05T02:04:08.444Z,2.37
2022-11-05T02:06:42.457Z,2.90
2022-11-05T02:09:16.234Z,2.43
2022-11-05T02:11:44.070Z,2.30
2022-11-05T02:14:11.927Z,1.83
2022-11-05T02:16:45.856Z,2.07
2022-11-05T02:19:39.949Z,1.80
2022-11-05T02:22:38.381Z,1.50
2022-11-05T02:25:28.851Z,1.60
2022-11-05T02:28:17.101Z,1.30
2022-11-05T02:30:50.610Z,1.60
2022-11-05T02:33:32.060Z,1.20
2022-11-05T02:36:13.234Z,1.33
2022-11-05T02:38:47.080Z,1.53
2022-11-05T02:41:24.662Z,1.53
2022-11-05T02:44:07.528Z,1.70
2022-11-05T02:46:43.960Z,1.90
2022-11-05T02:49:24.383Z,1.90
2022-11-05T02:51:56.418Z,2.03
2022-11-05T02:54:29.843Z,2.17
2022-11-05T02:56:59.020Z,1.73
2022-11-05T02:59:27.000Z,1.90
2022-11-05T03:01:57.710Z,1.77
2022-11-05T03:04:27.338Z,1.77
2022-11-05T03:07:15.271Z,1.53
2022-11-05T03:10:11.054Z,1.70
2022-11-05T03:12:49.206Z,1.50
2022-11-05T03:15:27.702Z,1.60
2022-11-05T03:18:07.145Z,1.50
2022-11-05T03:20:39.298Z,1.50
2022-11-05T03:23:20.423Z,1.40
2022-11-05T03:25:51.004Z,1.20
2022-11-05T03:28:23.722Z,1.60
2022-11-05T03:30:53.642Z,1.53
2022-11-05T03:33:26.646Z,2.10
2022-11-05T03:35:57.408Z,1.60
2022-11-05T03:38:29.629Z,1.93
2022-11-05T03:41:01.419Z,1.67
2022-11-05T03:43:33.895Z,1.50
2022-11-05T03:46:05.978Z,1.60
2022-11-05T03:48:39.894Z,1.40
2022-11-05T03:51:13.136Z,1.40
2022-11-05T03:53:46.590Z,1.37
2022-11-05T03:56:20.322Z,1.50
2022-11-05T03:58:53.383Z,1.60
2022-11-05T04:01:24.604Z,1.77
2022-11-05T04:03:54.012Z,1.60
2022-11-05T04:06:39.253Z,1.83
2022-11-05T04:09:27.064Z,1.70
2022-11-05T04:12:12.552Z,1.63
2022-11-05T04:14:40.441Z,1.87
2022-11-05T04:17:07.419Z,1.80
2022-11-05T04:19:59.537Z,1.50
2022-11-05T04:22:46.581Z,1.60
2022-11-05T04:25:15.564Z,1.53
2022-11-05T04:27:43.425Z,1.40
2022-11-05T04:30:20.481Z,1.50
2022-11-05T04:33:00.196Z,1.30
2022-11-05T04:35:31.708Z,0.93
2022-11-05T04:37:59.689Z,1.10
2022-11-05T04:40:28.062Z,0.80
2022-11-05T04:42:56.620Z,1.00
2022-11-05T04:45:24.854Z,0.70
2022-11-05T04:47:53.097Z,0.90
2022-11-05T04:50:21.219Z,0.80
2022-11-05T04:52:50.429Z,0.90
2022-11-05T04:55:18.321Z,0.70
2022-11-05T04:57:48.789Z,0.77
2022-11-05T05:00:17.105Z,0.97
2022-11-05T05:02:45.773Z,1.10
2022-11-05T05:05:13.858Z,1.00
2022-11-05T05:07:42.047Z,0.90
2022-11-05T05:10:12.542Z,1.00
2022-11-05T05:12:40.412Z,1.00
2022-11-05T05:15:08.881Z,0.90
2022-11-05T05:17:36.936Z,1.00
2022-11-05T05:20:22.896Z,1.10
2022-11-05T05:22:54.160Z,1.03
2022-11-05T05:25:23.643Z,3.10
2022-11-05T05:27:51.503Z,5.00
2022-11-05T05:30:19.641Z,2.67
2022-11-05T05:32:47.468Z,2.17
2022-11-05T05:35:15.486Z,1.77
2022-11-05T05:37:44.204Z,1.30
2022-11-05T05:40:12.805Z,1.17
2022-11-05T05:42:43.536Z,1.40
2022-11-05T05:45:12.554Z,1.63
2022-11-05T05:47:40.403Z,1.63
2022-11-05T05:50:08.571Z,1.87
2022-11-05T05:52:36.419Z,1.73
2022-11-05T05:55:04.650Z,1.80
2022-11-05T05:57:32.491Z,2.10
2022-11-05T06:00:02.009Z,1.90
2022-11-05T06:02:31.592Z,2.20
2022-11-05T06:04:59.535Z,1.83
2022-11-05T06:07:27.334Z,2.27
2022-11-05T06:09:55.184Z,2.20
2022-11-05T06:12:23.019Z,2.30
2022-11-05T06:14:50.864Z,2.63
2022-11-05T06:17:20.047Z,2.43
2022-11-05T06:19:47.920Z,3.00
2022-11-05T06:22:16.001Z,2.83
2022-11-05T06:24:43.824Z,2.97
2022-11-05T06:27:11.640Z,2.70
2022-11-05T06:29:39.450Z,2.80
2022-11-05T06:32:07.309Z,2.70
2022-11-05T06:34:36.775Z,3.00
2022-11-05T06:37:04.618Z,2.37
2022-11-05T06:39:32.494Z,2.90
2022-11-05T06:44:48.254Z,2.70
2022-11-05T06:47:16.132Z,3.10
2022-11-05T06:49:45.374Z,2.97
2022-11-05T06:52:14.118Z,3.10
2022-11-05T06:54:43.791Z,4.50
2022-11-05T06:57:13.124Z,3.57
2022-11-05T06:59:41.507Z,3.20
2022-11-05T07:02:13.550Z,3.57
2022-11-05T07:04:41.541Z,3.23
2022-11-05T07:07:10.803Z,3.17
2022-11-05T07:09:40.539Z,3.10
2022-11-05T07:12:08.851Z,2.90
2022-11-05T07:14:36.746Z,3.73
2022-11-05T07:17:04.690Z,3.50
2022-11-05T07:19:32.541Z,3.30
2022-11-05T07:22:00.340Z,3.53
2022-11-05T07:24:29.718Z,3.50
2022-11-05T07:26:57.593Z,4.00
2022-11-05T07:29:25.435Z,3.50
2022-11-05T07:31:53.273Z,4.07
2022-11-05T07:34:21.090Z,3.97
2022-11-05T07:36:48.939Z,3.67
2022-11-05T07:39:16.781Z,3.67
2022-11-05T07:41:45.996Z,4.27
2022-11-05T07:44:14.422Z,4.40
2022-11-05T07:46:42.591Z,4.63
2022-11-05T07:49:10.721Z,4.63
2022-11-05T07:51:38.540Z,4.40
2022-11-05T07:54:06.472Z,4.63
2022-11-05T07:56:34.371Z,4.00
2022-11-05T07:59:03.576Z,4.80
2022-11-05T08:01:31.553Z,4.50
2022-11-05T08:03:59.503Z,5.10
2022-11-05T08:06:27.345Z,5.10
2022-11-05T08:08:55.172Z,4.87
2022-11-05T08:11:22.983Z,4.20
2022-11-05T08:13:50.791Z,4.13
2022-11-05T08:16:19.962Z,4.43
2022-11-05T08:18:48.565Z,3.83
2022-11-05T08:21:16.474Z,4.27
2022-11-05T08:23:44.313Z,4.37
2022-11-05T08:26:12.351Z,3.90
2022-11-05T08:28:40.180Z,4.30
2022-11-05T08:31:08.065Z,4.50
2022-11-05T08:33:37.290Z,4.13
2022-11-05T08:36:06.369Z,4.77
2022-11-05T08:38:34.346Z,4.80
2022-11-05T08:41:02.200Z,4.33
2022-11-05T08:43:30.049Z,4.70
2022-11-05T08:45:57.884Z,4.97
2022-11-05T08:48:25.712Z,5.13
2022-11-05T08:50:54.953Z,5.37
2022-11-05T08:53:22.909Z,4.53
2022-11-05T08:55:51.539Z,5.20
2022-11-05T08:58:20.680Z,4.93
2022-11-05T09:00:50.710Z,5.30
2022-11-05T09:03:18.827Z,5.00
2022-11-05T09:05:47.184Z,4.20
2022-11-05T09:08:18.047Z,4.20
2022-11-05T09:10:46.973Z,4.70
2022-11-05T09:13:18.750Z,4.20
2022-11-05T09:15:47.909Z,5.17
2022-11-05T09:18:16.512Z,3.80
2022-11-05T09:20:44.634Z,5.17
2022-11-05T09:23:14.727Z,4.43
2022-11-05T09:25:44.754Z,4.80
2022-11-05T09:28:16.869Z,4.10
2022-11-05T09:30:46.257Z,4.53
2022-11-05T09:33:14.583Z,4.90
2022-11-05T09:35:42.917Z,4.90
2022-11-05T09:38:11.298Z,4.30
2022-11-05T09:40:45.814Z,4.43
2022-11-05T09:43:18.911Z,5.00
2022-11-05T09:45:49.366Z,5.13
2022-11-05T09:48:19.865Z,4.77
2022-11-05T09:50:48.475Z,4.73
2022-11-05T09:53:19.660Z,4.03
2022-11-05T09:55:52.449Z,5.43
2022-11-05T09:58:28.486Z,4.97
2022-11-05T10:00:58.136Z,6.33
2022-11-05T10:03:28.948Z,5.43
2022-11-05T10:06:06.615Z,4.97
2022-11-05T10:08:39.381Z,4.10
2022-11-05T10:11:13.320Z,4.00
2022-11-05T10:13:45.835Z,4.63
2022-11-05T10:16:23.350Z,4.37
2022-11-05T10:18:55.246Z,4.20
2022-11-05T10:21:44.128Z,4.67
2022-11-05T10:24:17.638Z,4.90
2022-11-05T10:26:50.729Z,4.90
2022-11-05T10:29:26.255Z,4.57
2022-11-05T10:31:55.476Z,5.33
2022-11-05T10:34:24.689Z,4.67
2022-11-05T10:36:54.190Z,4.57
2022-11-05T10:39:23.409Z,5.57
2022-11-05T10:42:05.380Z,4.20
2022-11-05T10:44:38.556Z,5.10
2022-11-05T10:47:31.633Z,4.20
2022-11-05T10:50:01.134Z,5.20
2022-11-05T10:52:34.214Z,4.13
2022-11-05T10:55:03.751Z,4.40
2022-11-05T10:57:35.609Z,4.80
2022-11-05T11:00:24.359Z,3.30
2022-11-05T11:02:54.703Z,4.33
2022-11-05T11:05:25.835Z,4.70
2022-11-05T11:07:57.106Z,4.63
2022-11-05T11:10:26.610Z,4.60
2022-11-05T11:12:57.630Z,3.60
2022-11-05T11:15:28.714Z,4.20
2022-11-05T11:17:56.824Z,4.30
2022-11-05T11:20:27.993Z,3.23
2022-11-05T11:23:05.086Z,3.63
2022-11-05T11:25:41.269Z,3.60
2022-11-05T11:28:20.194Z,3.63
2022-11-05T11:30:51.111Z,4.00
2022-11-05T11:33:23.517Z,4.40
2022-11-05T11:35:51.506Z,4.10
2022-11-05T11:38:19.494Z,3.77
2022-11-05T11:40:47.363Z,4.30
2022-11-05T11:43:27.275Z,4.17
2022-11-05T11:46:02.172Z,4.57
2022-11-05T11:48:36.447Z,4.50
2022-11-05T11:51:18.484Z,3.80
2022-11-05T11:53:49.207Z,4.47
2022-11-05T11:56:20.007Z,4.30
2022-11-05T11:58:51.460Z,4.77
2022-11-05T12:01:58.396Z,4.50
2022-11-05T12:04:55.288Z,4.90
2022-11-05T12:07:45.917Z,3.80
2022-11-05T12:10:29.936Z,4.33
2022-11-05T12:13:28.157Z,4.40
2022-11-05T12:16:01.604Z,4.30
2022-11-05T12:18:36.261Z,4.00
2022-11-05T12:21:13.661Z,4.57
2022-11-05T12:24:05.560Z,4.20
2022-11-05T12:26:45.656Z,4.13
2022-11-05T12:29:36.190Z,3.60
2022-11-05T12:32:31.831Z,3.00
2022-11-05T12:35:07.602Z,3.37
2022-11-05T12:37:42.418Z,3.40
2022-11-05T12:40:34.920Z,3.23
2022-11-05T12:43:12.068Z,3.00
2022-11-05T12:45:48.077Z,3.50
2022-11-05T12:48:46.154Z,3.30
2022-11-05T12:51:28.947Z,3.00
2022-11-05T12:54:21.907Z,3.47
2022-11-05T12:56:54.124Z,3.00
2022-11-05T12:59:26.394Z,2.83
2022-11-05T13:02:01.290Z,2.73
2022-11-05T13:04:39.246Z,2.60
2022-11-05T13:07:11.376Z,2.70
2022-11-05T13:09:44.314Z,2.30
2022-11-05T13:12:15.474Z,2.77
2022-11-05T13:14:47.903Z,2.97
2022-11-05T13:17:19.337Z,2.47
2022-11-05T13:19:53.420Z,2.13
2022-11-05T13:22:30.850Z,2.37
2022-11-05T13:25:03.709Z,3.10
2022-11-05T13:27:47.797Z,2.47
2022-11-05T13:30:20.076Z,2.43
2022-11-05T13:32:52.791Z,2.87
2022-11-05T13:35:28.039Z,2.87
2022-11-05T13:38:18.943Z,3.27
2022-11-05T13:41:00.356Z,2.80
2022-11-05T13:43:43.796Z,2.93
2022-11-05T13:46:26.431Z,2.47
2022-11-05T13:49:36.308Z,2.80
2022-11-05T13:52:27.547Z,2.63
2022-11-05T13:55:18.977Z,2.80
2022-11-05T13:58:13.960Z,3.13
2022-11-05T14:00:46.435Z,2.23
2022-11-05T14:03:19.557Z,2.50
2022-11-05T14:05:54.951Z,2.53
2022-11-05T14:08:28.059Z,2.97
2022-11-05T14:11:01.849Z,2.60
2022-11-05T14:13:36.034Z,2.37
2022-11-05T14:16:06.291Z,2.73
2022-11-05T14:18:43.425Z,2.73
2022-11-05T14:21:31.410Z,2.87
2022-11-05T14:24:20.066Z,2.90
2022-11-05T14:27:27.182Z,2.60
2022-11-05T14:29:55.083Z,2.67
2022-11-05T14:32:27.590Z,3.00
2022-11-05T14:35:01.802Z,2.47
2022-11-05T14:37:36.898Z,2.80
2022-11-05T14:40:27.054Z,2.50
2022-11-05T14:42:57.270Z,3.20
2022-11-05T14:45:30.011Z,3.07
2022-11-05T14:47:59.290Z,3.70
2022-11-05T14:50:34.457Z,3.63
2022-11-05T14:53:26.482Z,3.40
2022-11-05T14:56:02.424Z,3.57
2022-11-05T14:58:36.455Z,3.23
2022-11-05T15:01:06.583Z,3.13
2022-11-05T15:03:46.777Z,3.40
2022-11-05T15:06:28.277Z,3.43
2022-11-05T15:09:19.389Z,2.93
2022-11-05T15:12:00.186Z,3.10
2022-11-05T15:14:31.630Z,3.30
2022-11-05T15:17:04.972Z,3.07
2022-11-05T15:19:35.236Z,3.27
2022-11-05T15:22:07.018Z,3.20
2022-11-05T15:24:35.838Z,2.53
2022-11-05T15:27:09.106Z,3.80
2022-11-05T15:29:37.005Z,3.33
2022-11-05T15:32:06.097Z,5.40
2022-11-05T15:34:35.687Z,4.67
2022-11-05T15:37:20.548Z,4.23
2022-11-05T15:39:49.884Z,3.90
2022-11-05T15:42:22.121Z,3.67
2022-11-05T15:44:51.423Z,4.60
2022-11-05T15:47:22.468Z,4.33
2022-11-05T15:49:53.997Z,5.60
2022-11-05T15:52:24.121Z,5.40
2022-11-05T15:55:09.822Z,7.60
2022-11-05T15:57:40.607Z,7.70
2022-11-05T16:00:16.827Z,7.37
2022-11-05T16:02:51.305Z,4.53
2022-11-05T16:05:19.402Z,4.13
2022-11-05T16:07:48.386Z,4.20
2022-11-05T16:10:21.208Z,3.97
2022-11-05T16:12:50.838Z,3.67
2022-11-05T16:15:22.713Z,3.70
2022-11-05T16:17:54.462Z,3.53
2022-11-05T16:20:27.826Z,4.10
2022-11-05T16:22:58.257Z,4.53
2022-11-05T16:25:32.551Z,5.33
2022-11-05T16:28:02.033Z,4.60
2022-11-05T16:30:30.129Z,5.37
2022-11-05T16:33:05.706Z,4.63
2022-11-05T16:35:33.747Z,5.33
2022-11-05T16:38:02.966Z,5.47
2022-11-05T16:40:30.799Z,5.00
2022-11-05T16:43:18.727Z,4.70
2022-11-05T16:45:46.718Z,4.77
2022-11-05T16:48:15.664Z,4.50
2022-11-05T16:50:43.830Z,5.00
2022-11-05T16:53:12.104Z,4.77
2022-11-05T16:55:42.382Z,4.17
2022-11-05T16:58:20.455Z,4.50
2022-11-05T17:00:49.207Z,4.23
2022-11-05T17:03:17.219Z,4.27
2022-11-05T17:05:45.403Z,5.90
2022-11-05T17:08:13.542Z,6.17
2022-11-05T17:10:41.637Z,6.30
2022-11-05T17:13:11.158Z,5.47
2022-11-05T17:15:40.334Z,5.73
2022-11-05T17:18:09.332Z,5.13
2022-11-05T17:20:42.283Z,6.13
2022-11-05T17:23:11.805Z,6.10
2022-11-05T17:25:40.362Z,7.77
2022-11-05T17:28:09.019Z,7.50
2022-11-05T17:30:40.366Z,7.70
2022-11-05T17:33:11.837Z,6.40
2022-11-05T17:35:40.616Z,6.47
2022-11-05T17:38:08.503Z,5.90
2022-11-05T17:40:37.261Z,6.00
2022-11-05T17:43:05.562Z,5.43
2022-11-05T17:45:33.622Z,4.20
2022-11-05T17:48:03.222Z,4.13
2022-11-05T17:50:32.471Z,4.20
2022-11-05T17:53:00.318Z,3.93
2022-11-05T17:55:28.155Z,4.20
2022-11-05T17:57:56.038Z,4.80
2022-11-05T18:00:25.241Z,4.50
2022-11-05T18:02:54.772Z,4.83
2022-11-05T18:05:24.044Z,5.30
2022-11-05T18:07:53.358Z,5.30
2022-11-05T18:10:21.196Z,6.47
2022-11-05T18:12:49.751Z,4.90
2022-11-05T18:15:18.570Z,4.33
2022-11-05T18:17:47.148Z,4.27
2022-11-05T18:20:19.228Z,4.60
2022-11-05T18:22:47.481Z,3.90
2022-11-05T18:25:16.777Z,3.77
2022-11-05T18:27:45.098Z,3.80
2022-11-05T18:30:15.578Z,4.67
2022-11-05T18:32:43.888Z,4.20
2022-11-05T18:35:13.089Z,4.40
2022-11-05T18:37:41.363Z,4.10
2022-11-05T18:40:10.519Z,4.33
2022-11-05T18:42:40.386Z,6.93
2022-11-05T18:45:09.986Z,5.43
2022-11-05T18:47:37.817Z,5.53
2022-11-05T18:50:06.922Z,5.70
2022-11-05T18:52:34.846Z,6.60
2022-11-05T18:55:02.809Z,6.53
2022-11-05T18:57:30.787Z,6.40
2022-11-05T18:59:59.971Z,6.60
2022-11-05T19:02:28.035Z,6.30
2022-11-05T19:05:26.650Z,6.03
2022-11-05T19:07:43.880Z,6.17
2022-11-05T19:10:11.773Z,6.20
2022-11-05T19:12:39.597Z,5.23
2022-11-05T19:15:10.137Z,6.80
2022-11-05T19:17:38.174Z,6.60
2022-11-05T19:20:07.451Z,6.90
2022-11-05T19:22:35.283Z,5.47
2022-11-05T19:25:03.112Z,6.63
2022-11-05T19:27:31.002Z,6.53
2022-11-05T19:29:58.843Z,6.20
2022-11-05T19:32:28.047Z,6.50
2022-11-05T19:34:55.870Z,6.37
2022-11-05T19:37:23.705Z,7.33
2022-11-05T19:39:52.016Z,6.93
2022-11-05T19:42:19.935Z,7.03
2022-11-05T19:44:47.738Z,7.27
2022-11-05T19:47:15.598Z,6.13
2022-11-05T19:49:44.838Z,6.40
2022-11-05T19:52:12.618Z,5.70
2022-11-05T19:54:40.686Z,6.27
2022-11-05T19:57:08.578Z,5.40
2022-11-05T19:59:36.429Z,4.70
2022-11-05T20:02:04.657Z,4.80
2022-11-05T20:04:32.772Z,5.20
2022-11-05T20:07:01.943Z,5.07
2022-11-05T20:09:29.829Z,3.97
2022-11-05T20:11:57.705Z,4.33
2022-11-05T20:14:26.712Z,4.40
2022-11-05T20:16:54.944Z,5.03
2022-11-05T20:19:23.948Z,5.60
2022-11-05T20:21:51.896Z,4.90
2022-11-05T20:24:25.172Z,4.63
2022-11-05T20:26:54.319Z,4.33
2022-11-05T20:29:22.403Z,6.20
2022-11-05T20:31:51.147Z,4.90
2022-11-05T20:34:18.997Z,5.03
2022-11-05T20:36:46.833Z,4.23
2022-11-05T20:39:14.641Z,3.93
2022-11-05T20:41:43.847Z,3.97
2022-11-05T20:44:11.759Z,3.77
2022-11-05T20:46:39.590Z,4.20
2022-11-05T20:49:07.415Z,3.97
2022-11-05T20:51:35.305Z,6.23
2022-11-05T20:54:04.010Z,6.00
2022-11-05T20:56:34.661Z,5.43
2022-11-05T20:59:05.364Z,5.57
2022-11-05T21:01:35.347Z,4.60
2022-11-05T21:04:04.899Z,4.00
2022-11-05T21:06:33.661Z,3.80
2022-11-05T21:09:01.872Z,3.97
2022-11-05T21:11:49.793Z,4.70
2022-11-05T21:14:19.052Z,5.07
2022-11-05T21:16:46.973Z,4.20
2022-11-05T21:19:15.357Z,4.27
2022-11-05T21:21:43.322Z,4.30
2022-11-05T21:24:11.177Z,4.03
2022-11-05T21:26:39.566Z,4.10
2022-11-05T21:29:08.096Z,4.13
2022-11-05T21:31:38.135Z,4.90
2022-11-05T21:34:06.066Z,4.40
2022-11-05T21:36:34.947Z,3.87
2022-11-05T21:39:03.349Z,3.40
2022-11-05T21:41:31.189Z,3.17
2022-11-05T21:43:59.042Z,3.20
2022-11-05T21:46:26.848Z,3.80
2022-11-05T21:48:56.014Z,4.50
2022-11-05T21:51:55.896Z,4.17
2022-11-05T21:54:41.177Z,5.10
2022-11-05T21:57:33.038Z,5.10
2022-11-05T22:00:01.911Z,5.10
2022-11-05T22:02:30.640Z,4.90
2022-11-05T22:05:00.132Z,4.90
2022-11-05T22:07:31.016Z,4.20
2022-11-05T22:09:58.940Z,4.20
2022-11-05T22:12:26.786Z,4.37
2022-11-05T22:14:54.717Z,4.00
2022-11-05T22:17:22.773Z,3.20
2022-11-05T22:19:50.603Z,2.90
2022-11-05T22:22:19.827Z,3.17
2022-11-05T22:24:47.985Z,2.60
2022-11-05T22:27:19.239Z,2.93
2022-11-05T22:29:47.152Z,3.40
2022-11-05T22:32:15.392Z,3.23
2022-11-05T22:34:43.283Z,3.00
2022-11-05T22:37:13.474Z,3.10
2022-11-05T22:39:42.639Z,2.87
2022-11-05T22:42:10.617Z,3.40
2022-11-05T22:44:38.677Z,3.50
2022-11-05T22:47:07.161Z,3.50
2022-11-05T22:49:35.486Z,3.00
2022-11-05T22:52:03.378Z,2.90
2022-11-05T22:54:36.409Z,3.67
2022-11-05T22:57:08.590Z,3.17
2022-11-05T22:59:36.475Z,3.27
2022-11-05T23:02:09.490Z,3.50
2022-11-05T23:04:38.382Z,3.57
2022-11-05T23:07:27.563Z,3.40
2022-11-05T23:10:13.723Z,3.10
2022-11-05T23:12:44.463Z,3.00
2022-11-05T23:15:34.261Z,2.63
2022-11-05T23:18:30.953Z,3.30
2022-11-05T23:21:20.596Z,2.80
2022-11-05T23:24:06.017Z,3.30
2022-11-05T23:26:53.930Z,3.07
2022-11-05T23:29:24.835Z,3.07
2022-11-05T23:32:11.072Z,2.87
2022-11-05T23:34:39.537Z,3.17
2022-11-05T23:37:25.085Z,3.30
2022-11-05T23:39:52.978Z,3.03
2022-11-05T23:42:38.412Z,2.60
2022-11-05T23:45:26.068Z,3.63
2022-11-05T23:48:11.998Z,3.40
2022-11-05T23:50:40.909Z,2.80
2022-11-05T23:53:09.487Z,3.57
2022-11-05T23:55:37.361Z,2.73
2022-11-05T23:58:05.326Z,3.33
